Time;durP1;ratioP1;P1;durP2;ratioP2;P2;SDS_P1;SDS_P2;PMS_P1;PMS_P2;Temp;Humidity;BMP_temperature;BMP_pressure;BME280_temperature;BME280_humidity;BME280_pressure;Samples;Min_cycle;Max_cycle;Signal;HPM_P1;HPM_P2
2022/03/23 00:00:50;;;;;;;20.98;13.25;;;;;;;13.61;32.01;101267.31;5050725;28;20526;-61
2022/03/23 00:03:17;;;;;;;20.92;13.15;;;;;;;13.60;31.88;101264.75;5050862;28;20053;-59
2022/03/23 00:05:44;;;;;;;23.92;13.20;;;;;;;13.59;32.26;101265.66;5050036;28;20045;-60
2022/03/23 00:08:12;;;;;;;23.45;13.68;;;;;;;13.57;32.03;101267.53;5051056;28;20084;-61
2022/03/23 00:10:39;;;;;;;23.48;13.50;;;;;;;13.53;32.24;101267.66;5049479;28;20053;-61
2022/03/23 00:13:05;;;;;;;25.52;13.13;;;;;;;13.51;32.21;101266.03;5051133;28;20053;-60
2022/03/23 00:15:32;;;;;;;20.55;12.68;;;;;;;13.49;32.07;101267.91;5050678;28;20045;-60
2022/03/23 00:17:59;;;;;;;24.13;13.70;;;;;;;13.45;32.46;101266.28;5049330;28;20575;-61
2022/03/23 00:20:25;;;;;;;26.83;14.35;;;;;;;13.41;32.36;101270.81;5050801;28;20053;-61
2022/03/23 00:22:52;;;;;;;24.42;13.35;;;;;;;13.38;32.50;101266.53;5050632;28;20095;-60
2022/03/23 00:25:18;;;;;;;24.92;13.88;;;;;;;13.35;32.27;101264.03;5050786;28;20114;-59
2022/03/23 00:27:45;;;;;;;22.95;14.40;;;;;;;13.32;32.58;101260.66;5050379;28;20547;-61
2022/03/23 00:30:12;;;;;;;22.33;13.32;;;;;;;13.29;32.54;101264.31;5050038;28;20048;-59
2022/03/23 00:32:38;;;;;;;23.92;12.93;;;;;;;13.23;32.44;101265.44;5050420;28;20057;-60
2022/03/23 00:35:05;;;;;;;23.25;13.38;;;;;;;13.20;32.52;101265.56;5050523;28;20052;-60
2022/03/23 00:37:32;;;;;;;22.80;12.93;;;;;;;13.15;32.50;101267.53;5050510;28;20060;-61
2022/03/23 00:39:58;;;;;;;22.77;13.57;;;;;;;13.10;32.72;101267.75;5050270;28;20133;-60
2022/03/23 00:42:25;;;;;;;22.13;13.95;;;;;;;13.05;32.54;101267.09;5049897;28;20540;-60
2022/03/23 00:44:52;;;;;;;23.35;14.15;;;;;;;13.02;32.41;101261.94;5050097;28;20559;-63
2022/03/23 00:47:18;;;;;;;22.63;13.07;;;;;;;12.98;32.64;101263.00;5049988;28;20049;-60
2022/03/23 00:49:45;;;;;;;22.88;13.57;;;;;;;12.95;32.66;101260.47;5050025;28;20425;-59
2022/03/23 00:52:12;;;;;;;23.70;13.25;;;;;;;12.92;32.53;101265.88;5048859;28;20064;-60
2022/03/23 00:54:39;;;;;;;26.58;13.07;;;;;;;12.90;32.51;101252.78;5050119;28;20052;-59
2022/03/23 00:57:07;;;;;;;24.38;13.73;;;;;;;12.87;32.73;101256.38;5049903;28;20045;-59
2022/03/23 00:59:34;;;;;;;25.92;13.50;;;;;;;12.87;32.86;101260.81;5049722;28;20053;-59
2022/03/23 01:02:01;;;;;;;24.20;14.63;;;;;;;12.85;32.79;101252.94;5049824;28;20045;-59
2022/03/23 01:04:28;;;;;;;21.27;13.13;;;;;;;12.84;32.75;101260.94;5050117;28;20053;-60
2022/03/23 01:06:55;;;;;;;23.23;13.35;;;;;;;12.81;32.99;101259.28;5050049;28;20159;-59
2022/03/23 01:09:23;;;;;;;21.80;13.25;;;;;;;12.79;32.84;101260.28;5049379;28;20098;-61
2022/03/23 01:11:52;;;;;;;23.30;14.00;;;;;;;12.76;32.96;101248.06;5050444;28;20591;-59
2022/03/23 01:14:19;;;;;;;22.50;13.77;;;;;;;12.73;32.77;101254.34;5053792;28;20052;-61
2022/03/23 01:16:46;;;;;;;28.75;14.05;;;;;;;12.70;33.00;101249.16;5053541;28;20053;-61
2022/03/23 01:19:13;;;;;;;23.83;13.95;;;;;;;12.68;32.98;101244.88;5053518;28;20052;-60
2022/03/23 01:21:40;;;;;;;29.85;15.63;;;;;;;12.67;33.28;101248.44;5052686;28;20548;-61
2022/03/23 01:24:07;;;;;;;23.15;14.15;;;;;;;12.64;33.36;101250.28;5054114;28;20095;-61
2022/03/23 01:26:33;;;;;;;26.02;13.90;;;;;;;12.60;33.17;101240.75;5053845;28;20561;-61
2022/03/23 01:29:00;;;;;;;26.38;14.35;;;;;;;12.60;33.25;101243.41;5054127;28;20057;-61
2022/03/23 01:31:27;;;;;;;24.20;14.00;;;;;;;12.57;33.37;101246.19;5054027;28;20111;-61
2022/03/23 01:33:59;;;;;;;24.95;14.43;;;;;;;12.54;33.58;101243.69;5054175;28;20073;-60
2022/03/23 01:36:30;;;;;;;26.95;15.07;;;;;;;12.50;33.79;101253.50;5054026;28;20041;-61
2022/03/23 01:39:00;;;;;;;22.40;14.57;;;;;;;12.48;33.57;101250.06;5052726;28;20041;-60
2022/03/23 01:41:26;;;;;;;24.80;14.50;;;;;;;12.46;33.54;101243.13;5052759;28;20049;-61
2022/03/23 01:43:53;;;;;;;26.23;14.60;;;;;;;12.42;33.46;101242.41;5054181;28;20049;-60
2022/03/23 01:46:20;;;;;;;29.83;14.80;;;;;;;12.40;33.54;101240.75;5053628;28;20382;-61
2022/03/23 01:48:47;;;;;;;24.27;14.15;;;;;;;12.36;33.36;101248.78;5052199;28;20077;-63
2022/03/23 01:51:14;;;;;;;25.70;15.07;;;;;;;12.32;33.48;101239.28;5053252;28;20111;-60
2022/03/23 01:53:41;;;;;;;25.55;14.80;;;;;;;12.28;33.55;101236.81;5052313;28;20068;-60
2022/03/23 01:56:11;;;;;;;23.63;14.25;;;;;;;12.24;33.83;101238.72;5053240;28;20056;-61
2022/03/23 01:58:38;;;;;;;25.45;14.55;;;;;;;12.21;33.63;101231.78;5053857;28;20060;-61
2022/03/23 02:01:04;;;;;;;27.63;15.32;;;;;;;12.18;33.68;101231.91;5053142;28;20056;-62
2022/03/23 02:03:31;;;;;;;26.10;14.88;;;;;;;12.15;33.84;101236.44;5053613;28;20056;-61
2022/03/23 02:05:58;;;;;;;24.08;15.43;;;;;;;12.11;33.58;101236.56;5053277;28;20386;-60
2022/03/23 02:08:24;;;;;;;28.52;15.25;;;;;;;12.07;33.63;101232.31;5053122;28;20508;-60
2022/03/23 02:10:52;;;;;;;23.58;15.38;;;;;;;12.05;33.82;101230.63;5052630;28;20064;-60
2022/03/23 02:13:18;;;;;;;25.77;15.05;;;;;;;12.02;33.56;101228.97;5053008;28;20091;-60
2022/03/23 02:15:45;;;;;;;24.08;14.43;;;;;;;12.00;33.64;101220.25;5053288;28;20057;-62
2022/03/23 02:18:12;;;;;;;26.40;14.48;;;;;;;11.97;33.53;101223.03;5053313;28;20065;-61
2022/03/23 02:20:38;;;;;;;26.52;15.32;;;;;;;11.96;33.42;101222.16;5052656;28;20103;-60
2022/03/23 02:23:05;;;;;;;25.35;14.48;;;;;;;11.96;33.40;101218.69;5052851;28;20063;-61
2022/03/23 02:25:32;;;;;;;25.08;14.63;;;;;;;11.95;33.18;101227.50;5053165;28;20099;-60
2022/03/23 02:27:59;;;;;;;24.88;14.95;;;;;;;11.94;33.18;101220.50;5052969;28;20041;-61
2022/03/23 02:30:26;;;;;;;22.33;14.68;;;;;;;11.93;33.27;101224.91;5052983;28;20049;-61
2022/03/23 02:32:53;;;;;;;22.02;14.30;;;;;;;11.93;33.18;101218.78;5053015;28;20045;-61
2022/03/23 02:35:19;;;;;;;23.77;14.27;;;;;;;11.92;33.30;101223.19;5052823;28;20477;-61
2022/03/23 02:37:46;;;;;;;20.75;14.13;;;;;;;11.91;33.13;101221.47;5053005;28;20111;-62
2022/03/23 02:40:13;;;;;;;23.35;15.00;;;;;;;11.91;33.20;101228.53;5051851;28;20067;-60
2022/03/23 02:42:40;;;;;;;22.15;14.40;;;;;;;11.88;33.43;101218.97;5052457;28;20485;-60
2022/03/23 02:45:10;;;;;;;25.70;14.55;;;;;;;11.85;33.50;101217.31;5052758;28;20106;-61
2022/03/23 02:47:37;;;;;;;24.90;15.00;;;;;;;11.85;33.13;101217.31;5052787;28;20049;-61
2022/03/23 02:50:05;;;;;;;22.45;14.13;;;;;;;11.83;33.49;101218.28;5051229;28;20163;-60
2022/03/23 02:52:31;;;;;;;22.52;14.38;;;;;;;11.81;33.44;101222.78;5052292;28;20555;-61
2022/03/23 03:03:28;;;;;;;22.63;14.00;;;;;;;11.71;33.36;101215.19;5052230;28;20085;-60
2022/03/23 03:05:55;;;;;;;26.23;14.38;;;;;;;11.67;33.37;101210.94;5052419;28;20079;-60
2022/03/23 03:11:08;;;;;;;25.45;13.75;;;;;;;11.63;33.71;101219.06;5051421;28;20059;-60
2022/03/23 03:13:34;;;;;;;23.42;13.73;;;;;;;11.60;33.16;101217.41;5052166;28;20107;-60
2022/03/23 03:16:02;;;;;;;25.55;14.75;;;;;;;11.57;33.37;101221.00;5052498;28;20045;-61
2022/03/23 03:18:34;;;;;;;27.15;15.50;;;;;;;11.55;33.48;101224.63;5051898;28;20490;-63
2022/03/23 03:21:06;;;;;;;20.95;14.65;;;;;;;11.52;33.48;101224.72;5051680;28;20053;-62
2022/03/23 03:23:37;;;;;;;22.97;14.00;;;;;;;11.52;33.21;101220.31;5051846;28;20060;-63
2022/03/23 03:26:06;;;;;;;22.05;14.00;;;;;;;11.47;33.22;101228.41;5051557;28;20111;-61
2022/03/23 03:28:38;;;;;;;26.10;14.85;;;;;;;11.43;33.37;101223.28;5051055;28;20052;-62
2022/03/23 03:31:07;;;;;;;21.30;13.35;;;;;;;11.39;33.08;101227.81;5050790;28;20044;-61
2022/03/23 03:33:35;;;;;;;21.33;13.75;;;;;;;11.36;33.21;101219.16;5050790;28;20405;-60
2022/03/23 03:36:02;;;;;;;23.45;14.50;;;;;;;11.31;33.17;101222.84;5050917;28;20102;-63
2022/03/23 03:38:30;;;;;;;27.67;14.50;;;;;;;11.28;33.26;101233.47;5051424;28;20056;-61
2022/03/23 03:40:58;;;;;;;24.30;14.90;;;;;;;11.24;33.36;101229.22;5051117;28;20045;-60
2022/03/23 03:43:25;;;;;;;27.10;14.68;;;;;;;11.20;33.45;101228.50;5050320;28;20092;-61
2022/03/23 03:45:52;;;;;;;24.65;14.63;;;;;;;11.16;33.44;101226.88;5050164;28;20053;-61
2022/03/23 03:48:19;;;;;;;24.98;15.48;;;;;;;11.13;33.64;101223.47;5051419;28;20049;-61
2022/03/23 03:50:46;;;;;;;24.73;15.70;;;;;;;11.07;33.71;101235.97;5051133;28;20095;-61
2022/03/23 03:53:13;;;;;;;27.23;16.38;;;;;;;11.04;33.77;101228.19;5051599;28;20045;-60
2022/03/23 03:55:40;;;;;;;21.55;13.75;;;;;;;11.01;33.85;101236.19;5051441;28;20049;-62
2022/03/23 03:58:12;;;;;;;20.25;13.90;;;;;;;11.00;33.91;101231.84;5051104;28;20041;-60
2022/03/23 04:00:39;;;;;;;24.52;15.50;;;;;;;11.00;33.84;101242.38;5050867;28;20094;-61
2022/03/23 04:03:06;;;;;;;30.75;15.65;;;;;;;10.98;33.82;101232.81;5051032;28;20045;-61
2022/03/23 04:05:34;;;;;;;24.20;15.10;;;;;;;10.96;33.89;101238.13;5049674;28;20051;-61
2022/03/23 04:08:01;;;;;;;28.23;14.93;;;;;;;10.93;33.78;101235.59;5049749;28;20509;-60
2022/03/23 04:10:28;;;;;;;24.92;15.10;;;;;;;10.90;33.99;101235.69;5050805;28;20444;-60
2022/03/23 04:12:56;;;;;;;22.55;14.60;;;;;;;10.85;34.12;101240.25;5050813;28;20390;-60
2022/03/23 04:15:25;;;;;;;28.05;15.23;;;;;;;10.81;34.10;101240.34;5050916;28;20122;-61
2022/03/23 04:17:55;;;;;;;26.20;15.75;;;;;;;10.74;34.47;101232.72;5050710;28;20063;-61
2022/03/23 04:20:22;;;;;;;24.20;14.82;;;;;;;10.70;34.10;101237.25;5050493;28;20045;-60
2022/03/23 04:22:49;;;;;;;30.10;15.63;;;;;;;10.67;34.57;101237.34;5051115;28;20048;-60
2022/03/23 04:25:17;;;;;;;25.17;15.23;;;;;;;10.61;34.44;101233.13;5049580;28;20384;-61
2022/03/23 04:27:47;;;;;;;29.92;15.80;;;;;;;10.57;34.66;101235.94;5049450;28;20053;-60
2022/03/23 04:30:17;;;;;;;24.23;15.10;;;;;;;10.52;34.71;101241.34;5050614;28;20045;-60
2022/03/23 04:32:45;;;;;;;23.77;15.23;;;;;;;10.50;34.61;101240.56;5050744;28;20409;-61
2022/03/23 04:35:12;;;;;;;27.73;16.23;;;;;;;10.46;34.85;101241.56;5049487;28;20568;-59
2022/03/23 04:37:40;;;;;;;30.20;16.75;;;;;;;10.43;34.87;101250.34;5049042;28;20056;-60
2022/03/23 04:40:08;;;;;;;24.30;14.60;;;;;;;10.41;34.67;101244.28;5049148;28;20482;-62
2022/03/23 04:42:36;;;;;;;25.25;16.10;;;;;;;10.38;34.61;101247.00;5050367;28;20547;-61
2022/03/23 04:45:04;;;;;;;23.70;15.02;;;;;;;10.35;34.77;101244.50;5050347;28;20536;-61
2022/03/23 04:47:31;;;;;;;25.27;15.25;;;;;;;10.34;34.86;101245.38;5049178;28;20102;-60
2022/03/23 04:49:57;;;;;;;30.33;14.90;;;;;;;10.32;34.67;101245.44;5050611;28;20467;-61
2022/03/23 04:52:24;;;;;;;25.70;15.73;;;;;;;10.30;34.78;101237.63;5050506;28;20053;-60
2022/03/23 04:54:56;;;;;;;26.05;15.57;;;;;;;10.29;34.83;101243.78;5050455;28;20049;-60
2022/03/23 04:57:27;;;;;;;25.55;15.15;;;;;;;10.27;35.14;101240.34;5050312;28;20048;-60
2022/03/23 04:59:54;;;;;;;23.60;15.07;;;;;;;10.26;34.91;101243.88;5049047;28;20053;-61
2022/03/23 05:02:21;;;;;;;25.25;15.02;;;;;;;10.26;34.83;101240.38;5050243;28;20471;-63
2022/03/23 05:04:48;;;;;;;25.80;15.18;;;;;;;10.24;34.91;101248.31;5050480;28;20140;-60
2022/03/23 05:07:14;;;;;;;27.40;15.43;;;;;;;10.22;34.97;101249.28;5050091;28;20053;-60
2022/03/23 05:09:41;;;;;;;31.33;16.35;;;;;;;10.20;34.96;101257.22;5049997;28;20110;-60
2022/03/23 05:12:08;;;;;;;28.80;16.05;;;;;;;10.17;34.95;101258.19;5049776;28;20045;-60
2022/03/23 05:14:36;;;;;;;25.02;15.68;;;;;;;10.15;35.02;101251.25;5050534;28;20056;-61
2022/03/23 05:17:03;;;;;;;23.10;14.40;;;;;;;10.13;34.90;101256.56;5050179;28;20057;-60
2022/03/23 05:19:30;;;;;;;25.50;15.65;;;;;;;10.12;35.09;101259.22;5050121;28;20053;-61
2022/03/23 05:21:57;;;;;;;24.95;15.30;;;;;;;10.11;35.14;101257.50;5050088;28;20045;-60
2022/03/23 05:24:23;;;;;;;25.45;16.00;;;;;;;10.09;35.31;101262.81;5050207;28;20451;-62
2022/03/23 05:26:51;;;;;;;27.42;16.73;;;;;;;10.07;35.43;101258.50;5049993;28;20079;-61
2022/03/23 05:29:17;;;;;;;27.17;16.38;;;;;;;10.03;35.35;101253.34;5048900;28;20107;-61
2022/03/23 05:31:44;;;;;;;29.65;16.92;;;;;;;10.01;35.38;101255.16;5050067;28;20045;-62
2022/03/23 05:34:10;;;;;;;26.02;16.00;;;;;;;9.99;35.19;101256.97;5050265;28;20053;-61
2022/03/23 05:36:37;;;;;;;32.63;16.98;;;;;;;9.97;35.21;101258.78;5049889;28;20119;-59
2022/03/23 05:39:03;;;;;;;30.27;16.75;;;;;;;9.95;35.55;101260.63;5049772;28;20448;-61
2022/03/23 05:41:30;;;;;;;29.70;16.85;;;;;;;9.94;35.38;101264.16;5049657;28;20529;-60
2022/03/23 05:43:57;;;;;;;30.65;16.30;;;;;;;9.91;35.54;101253.72;5050156;28;20130;-60
2022/03/23 05:46:23;;;;;;;28.48;16.65;;;;;;;9.90;35.33;101259.88;5049835;28;20452;-60
2022/03/23 05:48:50;;;;;;;28.27;17.10;;;;;;;9.89;35.42;101261.66;5049822;28;20063;-62
2022/03/23 05:51:17;;;;;;;26.73;16.27;;;;;;;9.89;35.56;101268.69;5049709;28;20106;-60
2022/03/23 05:53:43;;;;;;;27.75;16.50;;;;;;;9.89;35.49;101260.78;5049557;28;20467;-61
2022/03/23 05:56:10;;;;;;;27.33;16.30;;;;;;;9.88;35.71;101269.59;5049914;28;20045;-60
2022/03/23 05:58:36;;;;;;;29.67;16.15;;;;;;;9.88;35.60;101274.84;5051615;28;20105;-63
2022/03/23 06:01:03;;;;;;;30.10;16.20;;;;;;;9.87;35.61;101267.88;5052963;28;20057;-61
2022/03/23 06:03:31;;;;;;;30.17;17.35;;;;;;;9.86;35.63;101274.91;5053557;28;20059;-60
2022/03/23 06:05:58;;;;;;;27.58;16.20;;;;;;;9.85;35.81;101272.31;5053160;28;20052;-60
2022/03/23 06:08:24;;;;;;;28.90;17.17;;;;;;;9.86;35.90;101276.66;5053229;28;20049;-63
2022/03/23 06:10:52;;;;;;;29.73;16.45;;;;;;;9.86;35.80;101276.66;5053250;28;20040;-59
2022/03/23 06:13:18;;;;;;;26.38;15.82;;;;;;;9.85;35.87;101277.56;5053551;28;20099;-61
2022/03/23 06:15:46;;;;;;;27.85;16.33;;;;;;;9.85;36.01;101277.56;5053513;28;20052;-60
2022/03/23 06:18:13;;;;;;;28.05;16.60;;;;;;;9.86;35.89;101279.28;5053169;28;20076;-60
2022/03/23 06:20:39;;;;;;;26.52;16.15;;;;;;;9.85;36.26;101274.94;5052687;28;20053;-61
2022/03/23 06:23:06;;;;;;;28.02;16.65;;;;;;;9.87;36.14;101283.66;5053269;28;20398;-60
2022/03/23 06:25:33;;;;;;;34.20;16.63;;;;;;;9.89;36.31;101287.09;5053329;28;20057;-60
2022/03/23 06:27:59;;;;;;;26.40;15.73;;;;;;;9.90;36.18;101286.19;5052924;28;20057;-63
2022/03/23 06:30:26;;;;;;;26.13;16.15;;;;;;;9.94;36.23;101284.34;5052747;28;20048;-60
2022/03/23 06:32:52;;;;;;;26.73;16.63;;;;;;;9.96;36.29;101283.38;5052808;28;20122;-60
2022/03/23 06:35:19;;;;;;;26.77;16.63;;;;;;;10.00;36.62;101289.41;5052561;28;20103;-61
2022/03/23 06:37:45;;;;;;;26.70;16.00;;;;;;;10.03;36.55;101284.91;5052836;28;20057;-62
2022/03/23 06:40:12;;;;;;;26.67;16.02;;;;;;;10.07;36.51;101282.19;5052611;28;20049;-60
2022/03/23 06:42:42;;;;;;;30.48;16.45;;;;;;;10.12;36.45;101286.41;5052447;28;20045;-60
2022/03/23 06:45:09;;;;;;;26.85;16.55;;;;;;;10.17;36.80;101292.38;5052444;28;20106;-61
2022/03/23 06:47:35;;;;;;;27.73;15.88;;;;;;;10.22;36.77;101289.63;5052473;28;20053;-63
2022/03/23 06:50:03;;;;;;;26.02;16.27;;;;;;;10.27;36.81;101295.59;5052169;28;20052;-61
2022/03/23 06:52:31;;;;;;;25.10;16.42;;;;;;;10.31;36.79;101291.09;5052468;28;20067;-61
2022/03/23 06:54:58;;;;;;;29.55;16.25;;;;;;;10.37;36.80;101293.56;5052765;28;20044;-64
2022/03/23 06:57:24;;;;;;;26.85;16.73;;;;;;;10.43;36.90;101292.47;5052296;28;20041;-61
2022/03/23 06:59:51;;;;;;;30.95;17.27;;;;;;;10.49;36.92;101294.97;5052090;28;20056;-61
2022/03/23 07:02:17;;;;;;;25.17;16.00;;;;;;;10.56;37.04;101295.63;5052382;28;20143;-61
2022/03/23 07:04:44;;;;;;;30.13;17.45;;;;;;;10.63;36.79;101298.91;5052279;28;20139;-62
2022/03/23 07:07:11;;;;;;;27.58;16.40;;;;;;;10.69;37.23;101309.25;5052215;28;20057;-63
2022/03/23 07:09:41;;;;;;;26.23;17.10;;;;;;;10.76;37.19;101297.59;5050590;28;20056;-60
2022/03/23 07:12:09;;;;;;;25.52;17.20;;;;;;;10.82;37.36;101302.69;5051709;28;20053;-61
2022/03/23 07:14:39;;;;;;;28.85;18.05;;;;;;;10.89;37.36;101297.22;5052207;28;20215;-61
2022/03/23 07:17:07;;;;;;;34.15;18.65;;;;;;;10.94;37.18;101306.69;5050760;28;20544;-61
2022/03/23 07:19:33;;;;;;;30.35;17.98;;;;;;;11.02;37.03;101310.81;5051842;28;20102;-61
2022/03/23 07:22:00;;;;;;;33.67;18.55;;;;;;;11.06;37.12;101305.41;5051904;28;20048;-62
2022/03/23 07:24:27;;;;;;;32.03;19.33;;;;;;;11.12;37.05;101304.34;5050949;28;20056;-62
2022/03/23 07:26:53;;;;;;;31.80;19.15;;;;;;;11.18;37.19;101303.28;5051646;28;20049;-61
2022/03/23 07:29:40;;;;;;;32.10;18.27;;;;;;;11.26;36.93;101311.78;5051322;28;20429;-61
2022/03/23 07:32:08;;;;;;;28.23;17.67;;;;;;;11.31;36.96;101316.88;5051724;28;20061;-62
2022/03/23 07:34:34;;;;;;;26.20;16.63;;;;;;;11.38;36.99;101317.50;5051664;28;20044;-63
2022/03/23 07:37:01;;;;;;;26.08;17.70;;;;;;;11.43;36.95;101315.56;5051702;28;20052;-61
2022/03/23 07:39:27;;;;;;;24.15;16.33;;;;;;;11.50;37.01;101319.72;5051505;28;20414;-62
2022/03/23 07:41:55;;;;;;;28.00;17.50;;;;;;;11.56;36.81;101318.63;5051491;28;20071;-74
2022/03/23 07:44:22;;;;;;;29.80;17.05;;;;;;;11.62;36.88;101315.75;5051576;28;20098;-61
2022/03/23 07:46:48;;;;;;;31.13;17.58;;;;;;;11.68;37.04;101314.69;5051855;28;20060;-62
2022/03/23 07:49:16;;;;;;;25.17;16.77;;;;;;;11.74;36.99;101314.47;5051305;28;20429;-63
2022/03/23 07:51:43;;;;;;;26.25;16.65;;;;;;;11.81;37.05;101315.97;5051284;28;20044;-63
2022/03/23 07:54:10;;;;;;;30.33;18.08;;;;;;;11.88;36.88;101315.75;5051383;28;20049;-62
2022/03/23 07:56:37;;;;;;;25.10;17.25;;;;;;;11.93;36.82;101317.25;5051026;28;20095;-62
2022/03/23 07:59:03;;;;;;;26.35;17.05;;;;;;;11.99;36.87;101324.97;5050010;28;20645;-64
2022/03/23 08:01:30;;;;;;;24.63;16.90;;;;;;;12.04;36.92;101327.41;5051163;28;20045;-62
2022/03/23 08:03:57;;;;;;;25.42;16.67;;;;;;;12.10;36.75;101326.38;5051209;28;20044;-63
2022/03/23 08:06:25;;;;;;;29.15;17.13;;;;;;;12.15;36.81;101339.41;5050936;28;20057;-62
2022/03/23 08:08:52;;;;;;;29.02;17.27;;;;;;;12.20;36.83;101329.53;5050947;28;20099;-62
2022/03/23 08:11:19;;;;;;;28.02;16.50;;;;;;;12.24;36.96;101326.72;5051070;28;20048;-61
2022/03/23 08:13:46;;;;;;;26.33;17.30;;;;;;;12.29;37.12;101331.78;5050984;28;20045;-62
2022/03/23 08:16:12;;;;;;;27.30;17.23;;;;;;;12.35;36.84;101341.25;5050987;28;20049;-61
2022/03/23 08:18:39;;;;;;;25.63;16.77;;;;;;;12.41;36.94;101335.72;5050690;28;20084;-61
2022/03/23 08:21:06;;;;;;;25.48;15.55;;;;;;;12.47;36.97;101342.56;5050203;28;20057;-62
2022/03/23 08:23:33;;;;;;;25.73;17.63;;;;;;;12.53;36.62;101337.06;5050722;28;20060;-62
2022/03/23 08:25:59;;;;;;;28.08;17.13;;;;;;;12.60;36.33;101341.16;5050526;28;20052;-62
2022/03/23 08:28:26;;;;;;;27.20;18.85;;;;;;;12.67;36.58;101340.91;5050666;28;20151;-62
2022/03/23 08:30:53;;;;;;;29.95;18.05;;;;;;;12.71;36.52;101332.78;5049017;28;20049;-62
2022/03/23 08:33:19;;;;;;;29.35;17.20;;;;;;;12.77;36.51;101343.13;5050088;28;20277;-62
2022/03/23 08:35:46;;;;;;;26.73;17.40;;;;;;;12.83;36.46;101336.72;5050784;28;20045;-64
2022/03/23 08:38:13;;;;;;;25.38;18.13;;;;;;;12.90;36.42;101334.69;5050405;28;20585;-62
2022/03/23 08:40:40;;;;;;;27.35;17.63;;;;;;;12.95;36.58;101331.84;5050628;28;20056;-62
2022/03/23 08:43:06;;;;;;;26.27;16.45;;;;;;;13.02;36.29;101328.03;5050710;28;20481;-62
2022/03/23 08:45:35;;;;;;;24.75;17.13;;;;;;;13.07;36.44;101339.25;5050506;28;20102;-62
2022/03/23 08:48:03;;;;;;;26.88;17.20;;;;;;;13.14;36.52;101331.94;5050196;28;20497;-62
2022/03/23 08:50:30;;;;;;;29.10;17.08;;;;;;;13.21;36.72;101346.63;5050176;28;20088;-61
2022/03/23 08:52:57;;;;;;;24.92;18.23;;;;;;;13.26;36.52;101339.34;5050348;28;20102;-62
2022/03/23 08:55:30;;;;;;;25.42;16.35;;;;;;;13.32;36.32;101343.53;5050038;28;20405;-62
2022/03/23 08:57:57;;;;;;;22.25;16.13;;;;;;;13.39;36.16;101339.66;5050564;28;20129;-62
2022/03/23 09:00:24;;;;;;;26.23;16.60;;;;;;;13.48;36.07;101346.38;5048594;28;20064;-63
2022/03/23 09:02:51;;;;;;;22.80;15.80;;;;;;;13.54;36.23;101342.63;5048131;28;20489;-62
2022/03/23 09:05:19;;;;;;;22.58;16.27;;;;;;;13.62;35.73;101343.13;5050051;28;20063;-62
2022/03/23 09:07:46;;;;;;;21.13;16.30;;;;;;;13.71;35.77;101341.84;5050457;28;20077;-63
2022/03/23 09:10:15;;;;;;;23.40;17.13;;;;;;;13.79;36.05;101355.59;5050028;28;20060;-62
2022/03/23 09:12:43;;;;;;;22.55;16.58;;;;;;;13.87;35.77;101341.16;5049477;28;20053;-62
2022/03/23 09:15:12;;;;;;;24.45;16.73;;;;;;;13.92;36.41;101334.75;5048699;28;20464;-62
2022/03/23 09:17:40;;;;;;;23.52;16.85;;;;;;;14.02;36.32;101343.09;5050064;28;20057;-63
2022/03/23 09:20:10;;;;;;;26.95;18.05;;;;;;;14.10;36.46;101336.59;5049811;28;20099;-62
2022/03/23 09:22:37;;;;;;;30.15;17.85;;;;;;;14.20;36.11;101341.41;5049026;28;20041;-63
2022/03/23 09:25:10;;;;;;;27.00;16.85;;;;;;;14.26;36.25;101347.31;5050238;28;20061;-62
2022/03/23 09:27:38;;;;;;;26.00;16.42;;;;;;;14.36;36.00;101343.34;5050152;28;20463;-62
2022/03/23 09:30:06;;;;;;;24.35;17.55;;;;;;;14.45;36.22;101339.38;5049961;28;20130;-62
2022/03/23 09:32:33;;;;;;;27.80;17.63;;;;;;;14.54;35.93;101338.91;5050079;28;20054;-62
2022/03/23 09:35:00;;;;;;;24.77;16.20;;;;;;;14.62;35.99;101338.56;5053583;28;20099;-62
2022/03/23 09:40:13;;;;;;;25.92;15.75;;;;;;;14.83;35.96;101341.09;5053703;28;20053;-62
2022/03/23 09:42:42;;;;;;;23.02;16.95;;;;;;;14.92;36.09;101339.81;5052455;28;20452;-64
2022/03/23 09:45:10;;;;;;;23.52;17.35;;;;;;;15.01;35.84;101335.81;5052147;28;20056;-62
2022/03/23 09:47:38;;;;;;;24.65;16.73;;;;;;;15.11;36.08;101343.22;5053591;28;20382;-62
2022/03/23 09:50:05;;;;;;;24.05;16.35;;;;;;;15.22;35.63;101342.69;5052124;28;20138;-62
2022/03/23 09:52:32;;;;;;;24.55;17.30;;;;;;;15.32;35.53;101339.56;5053482;28;20057;-63
2022/03/23 09:54:58;;;;;;;25.48;17.35;;;;;;;15.42;35.51;101339.94;5053472;28;20045;-63
2022/03/23 09:57:25;;;;;;;24.58;17.33;;;;;;;15.52;35.71;101341.19;5053405;28;20256;-61
2022/03/23 09:59:51;;;;;;;29.35;18.23;;;;;;;15.63;35.91;101344.13;5053579;28;20413;-61
2022/03/23 10:02:40;;;;;;;25.45;17.40;;;;;;;15.76;35.21;101338.16;5053166;28;20041;-63
2022/03/23 10:05:45;;;;;;;23.95;17.23;;;;;;;15.86;34.88;101341.19;5052025;28;20512;-61
2022/03/23 10:08:46;;;;;;;23.15;16.77;;;;;;;15.99;34.88;101341.41;5053188;28;20473;-62
2022/03/23 10:11:50;;;;;;;21.77;16.45;;;;;;;16.12;35.17;101342.44;5051788;28;20436;-61
2022/03/23 10:14:48;;;;;;;25.10;17.40;;;;;;;16.28;34.91;101339.81;5052862;28;20056;-61
2022/03/23 10:17:42;;;;;;;23.05;16.20;;;;;;;16.42;34.34;101343.50;5053064;28;20102;-62
2022/03/23 10:20:11;;;;;;;23.85;17.05;;;;;;;16.60;34.44;101335.41;5052446;28;20056;-62
2022/03/23 10:22:49;;;;;;;26.35;16.92;;;;;;;16.70;33.94;101339.25;5052669;28;20049;-65
2022/03/23 10:25:18;;;;;;;28.00;16.45;;;;;;;16.86;33.95;101335.72;5052057;28;20083;-61
2022/03/23 10:27:45;;;;;;;23.20;16.98;;;;;;;16.99;34.12;101333.19;5051755;28;20041;-62
2022/03/23 10:30:14;;;;;;;22.38;17.02;;;;;;;17.12;34.39;101330.69;5051578;28;20106;-62
2022/03/23 10:32:44;;;;;;;21.55;16.40;;;;;;;17.27;33.90;101332.41;5052823;28;20049;-62
2022/03/23 10:35:15;;;;;;;24.33;17.80;;;;;;;17.41;33.53;101325.41;5052687;28;20472;-63
2022/03/23 10:37:43;;;;;;;23.55;18.27;;;;;;;17.55;33.78;101325.44;5052988;28;20044;-61
2022/03/23 10:40:13;;;;;;;24.88;16.98;;;;;;;17.71;33.38;101321.81;5052382;28;20049;-61
2022/03/23 10:42:42;;;;;;;21.90;16.98;;;;;;;17.84;33.10;101320.06;5052275;28;20102;-61
2022/03/23 10:45:18;;;;;;;23.70;16.60;;;;;;;17.98;32.66;101316.56;5052758;28;20055;-62
2022/03/23 10:47:46;;;;;;;21.70;16.98;;;;;;;18.12;32.79;101317.50;5051548;28;20466;-61
2022/03/23 10:50:19;;;;;;;18.90;15.35;;;;;;;18.22;32.96;101310.66;5052363;28;20099;-61
2022/03/23 10:52:52;;;;;;;;;;;;;;;18.36;32.98;101312.41;5052586;28;20045;-62
2022/03/23 10:55:19;;;;;;;19.45;14.88;;;;;;;18.56;32.43;101315.59;5052814;28;20348;-63
2022/03/23 10:57:52;;;;;;;21.98;15.63;;;;;;;18.65;31.60;101307.94;5052396;28;20107;-62
2022/03/23 11:00:34;;;;;;;18.42;15.15;;;;;;;18.73;31.39;101300.28;5052177;28;20061;-61
2022/03/23 11:03:03;;;;;;;22.17;15.30;;;;;;;18.88;31.31;101307.22;5052457;28;20053;-61
2022/03/23 11:05:36;;;;;;;21.38;14.85;;;;;;;18.98;31.15;101309.25;5052350;28;20115;-63
2022/03/23 11:08:13;;;;;;;19.13;14.13;;;;;;;19.11;30.88;101310.16;5052359;28;20394;-61
2022/03/23 11:19:19;;;;;;;17.40;13.13;;;;;;;20.02;30.76;101303.94;5052052;28;20056;-67
2022/03/23 11:22:06;;;;;;;15.45;12.73;;;;;;;20.51;30.52;101304.81;5052011;28;20049;-61
2022/03/23 11:24:37;;;;;;;14.50;12.52;;;;;;;21.08;30.10;101288.09;5051956;28;20049;-61
2022/03/23 11:27:09;;;;;;;14.20;12.50;;;;;;;21.70;29.38;101285.97;5052314;28;20396;-62
2022/03/23 11:29:39;;;;;;;13.60;12.20;;;;;;;22.37;29.56;101294.03;5050739;28;20099;-63
2022/03/23 11:32:12;;;;;;;15.75;12.25;;;;;;;23.07;28.10;101281.16;5051845;28;20058;-62
2022/03/23 11:34:40;;;;;;;13.20;11.02;;;;;;;23.73;28.49;101289.81;5050654;28;20053;-62
2022/03/23 11:37:08;;;;;;;12.93;11.52;;;;;;;24.39;27.87;101285.72;5051717;28;20099;-63